Robin DR400/180



Le DR 400/180 Régent, quadriplace de 180 CV.

Caractéristiques :
Moteur Lycoming 180 cv
Consommation : 35 l/h
Autonomie : 4 h 30 + la sécurité
Vitesse de croisière : 120 kts

Equipement :
En plus de l’équipement minimal
Horizon artificiel
VHF
VOR - Radiocompas
Transpondeur
Balise de détresse portable
GPS
Horamètre

Rapport de pesée (cliquez) ** Date du rapport 09/01/2015 ** - Attention ! Ce rapport de pesée est mis en ligne à TITRE INFORMATIF UNIQUEMENT. Vous devez en cas de besoin, consulter le rapport de pesée joint au carnet de route, seul document faisant foi en la matière.

Le DR400/180

Webcam :

Nuit aéronautique

25 Sep 2018

Heure locale,
pour LFDL uniquement.

Lever du soleil aéronautique :07:22
Lever du soleil :07:52
Coucher du soleil :19:50
Coucher du soleil aéronautique :20:20

Metar

LFBI :
2018/09/25 05:30
LFBI 250530Z AUTO 03009KT CAVOK 07/04 Q1033 NOSIG
LFBI :
Poitiers, France (LFBI) 46-35N 000-19E 120M
Sep 25, 2018 - 01:30 AM EDT / 2018.09.25 0530 UTC
Wind: from the NNE (030 degrees) at 10 MPH (9 KT):0
Visibility: greater than 7 mile(s):0
Temperature: 44 F (7 C)
Dew Point: 39 F (4 C)
Relative Humidity: 81%
Pressure (altimeter): 30.50 in. Hg (1033 hPa)
ob: LFBI 250530Z AUTO 03009KT CAVOK 07/04 Q1033 NOSIG
cycle: 5

Afficher le metar d'une autre station :
Code OACI :

Aéroclub de Loudun


Bellevue
86200 Loudun


Contacter Michel Richez (président)

  • Mail:michel.richez@free.fr
  • Tel:09-50-38-02-06
  • Mobile:06-52-73-09-01



agrandir le plan

Newsletter

Mon e-mail :